Time;durP1;ratioP1;P1;durP2;ratioP2;P2;SDS_P1;SDS_P2;PMS_P1;PMS_P2;Temp;Humidity;BMP_temperature;BMP_pressure;BME280_temperature;BME280_humidity;BME280_pressure;Samples;Min_cycle;Max_cycle;Signal;HPM_P1;HPM_P2
2021/11/01 00:00:46;;;;;;;401.43;382.97;;;9.50;99.90;;;;;;4391764;32;20602;-63
2021/11/01 00:03:13;;;;;;;406.57;387.90;;;9.40;99.90;;;;;;4389681;32;20205;-63
2021/11/01 00:05:40;;;;;;;395.87;377.57;;;9.50;99.90;;;;;;4383630;32;20184;-63
2021/11/01 00:08:07;;;;;;;399.07;380.97;;;9.40;99.90;;;;;;4387463;32;20198;-63
2021/11/01 00:10:35;;;;;;;411.37;392.30;;;9.40;99.90;;;;;;4388693;32;20188;-63
2021/11/01 00:13:03;;;;;;;401.20;381.90;;;9.40;99.90;;;;;;4376484;32;20149;-63
2021/11/01 00:15:30;;;;;;;409.73;390.80;;;9.40;99.90;;;;;;4377096;32;20280;-63
2021/11/01 00:17:57;;;;;;;410.13;390.77;;;9.40;99.90;;;;;;4387031;32;20166;-63
2021/11/01 00:20:26;;;;;;;386.70;369.20;;;9.30;99.90;;;;;;4392713;32;20242;-63
2021/11/01 00:22:53;;;;;;;408.10;388.40;;;9.40;99.90;;;;;;4381795;32;20165;-62
2021/11/01 00:25:21;;;;;;;409.50;390.57;;;9.30;99.90;;;;;;4384435;32;20179;-62
2021/11/01 00:27:48;;;;;;;405.43;386.67;;;9.30;99.90;;;;;;4380658;32;20160;-63
2021/11/01 00:30:17;;;;;;;399.60;381.43;;;9.40;99.90;;;;;;4377922;32;20184;-63
2021/11/01 00:32:46;;;;;;;390.10;371.40;;;9.30;99.90;;;;;;4377660;32;20208;-63
2021/11/01 00:35:15;;;;;;;389.00;370.67;;;9.30;99.90;;;;;;4391629;32;20208;-63
2021/11/01 00:37:43;;;;;;;383.17;365.30;;;9.30;99.90;;;;;;4392964;32;20152;-63
2021/11/01 00:40:10;;;;;;;406.33;386.97;;;9.20;99.90;;;;;;4392470;32;20206;-63
2021/11/01 00:42:37;;;;;;;400.87;383.10;;;9.20;99.90;;;;;;4392805;32;20211;-63
2021/11/01 00:45:05;;;;;;;407.57;388.43;;;9.20;99.90;;;;;;4392298;32;20499;-63
2021/11/01 00:47:33;;;;;;;424.33;404.33;;;9.20;99.90;;;;;;4393031;32;20189;-62
2021/11/01 00:50:00;;;;;;;402.20;383.63;;;9.20;99.90;;;;;;4382489;32;20195;-62
2021/11/01 00:52:30;;;;;;;380.87;362.77;;;9.20;99.90;;;;;;4392356;32;20228;-63
2021/11/01 00:55:03;;;;;;;372.17;355.57;;;9.20;99.90;;;;;;4386405;32;20199;-63
2021/11/01 00:57:31;;;;;;;382.17;364.17;;;9.10;99.90;;;;;;4377497;32;20149;-63
2021/11/01 00:59:59;;;;;;;375.37;357.90;;;9.20;99.90;;;;;;4377176;32;20158;-64
2021/11/01 01:02:27;;;;;;;368.07;351.07;;;9.10;99.90;;;;;;4378180;32;20190;-63
2021/11/01 01:04:55;;;;;;;395.90;378.40;;;9.10;99.90;;;;;;4377888;32;20176;-62
2021/11/01 01:07:22;;;;;;;381.30;364.13;;;9.10;99.90;;;;;;4389828;32;20194;-62
2021/11/01 01:09:49;;;;;;;361.53;345.07;;;9.10;99.90;;;;;;4393302;32;20146;-62
2021/11/01 01:12:17;;;;;;;401.30;382.97;;;9.00;99.90;;;;;;4392620;32;20627;-62
2021/11/01 01:14:47;;;;;;;394.77;376.63;;;9.10;99.90;;;;;;4392236;32;20154;-62
2021/11/01 01:17:15;;;;;;;371.23;354.30;;;9.00;99.90;;;;;;4392872;32;20167;-62
2021/11/01 01:19:51;;;;;;;378.70;361.53;;;9.00;99.90;;;;;;4391928;32;20187;-63
2021/11/01 01:22:28;;;;;;;357.50;341.37;;;9.00;99.90;;;;;;4391813;32;20152;-62
2021/11/01 01:25:03;;;;;;;370.23;353.80;;;8.90;99.90;;;;;;4377432;32;20214;-62
2021/11/01 01:27:31;;;;;;;370.30;353.77;;;8.90;99.90;;;;;;4387337;32;20156;-63
2021/11/01 01:29:57;;;;;;;367.67;351.63;;;9.00;99.90;;;;;;4384758;32;20513;-62
2021/11/01 01:32:24;;;;;;;357.30;341.23;;;9.00;99.90;;;;;;4377401;32;20200;-62
2021/11/01 01:34:51;;;;;;;367.77;350.87;;;9.00;99.90;;;;;;4376892;32;20168;-63
2021/11/01 01:37:19;;;;;;;394.57;377.03;;;8.90;99.90;;;;;;4376777;32;20149;-62
2021/11/01 01:39:46;;;;;;;362.93;346.87;;;8.90;99.90;;;;;;4376855;32;20246;-62
2021/11/01 01:42:13;;;;;;;380.40;362.53;;;8.90;99.90;;;;;;4385761;32;20183;-62
2021/11/01 01:44:40;;;;;;;371.77;355.13;;;8.90;99.90;;;;;;4392970;32;20151;-62
2021/11/01 01:47:10;;;;;;;373.17;356.70;;;8.90;99.90;;;;;;4391610;32;20207;-62
2021/11/01 01:49:37;;;;;;;380.80;363.97;;;8.80;99.90;;;;;;4393268;32;20160;-63
2021/11/01 01:52:05;;;;;;;355.80;339.70;;;8.80;99.90;;;;;;4391743;32;20168;-62
2021/11/01 01:54:33;;;;;;;373.10;356.97;;;8.80;99.90;;;;;;4393120;32;20171;-62
2021/11/01 01:57:01;;;;;;;355.20;340.10;;;8.80;99.90;;;;;;4391785;32;20197;-62
2021/11/01 01:59:28;;;;;;;386.73;369.17;;;8.90;99.90;;;;;;4391454;32;20600;-63
2021/11/01 02:01:56;;;;;;;358.33;342.47;;;8.80;99.90;;;;;;4391334;32;20548;-62
2021/11/01 02:04:25;;;;;;;348.00;332.47;;;8.80;99.90;;;;;;4391413;32;20156;-62
2021/11/01 02:07:12;;;;;;;350.03;333.73;;;8.70;99.90;;;;;;4391491;32;20546;-63
2021/11/01 02:09:50;;;;;;;337.73;322.20;;;8.80;99.90;;;;;;4391345;32;20166;-62
2021/11/01 02:12:23;;;;;;;362.13;345.87;;;8.80;99.90;;;;;;4389054;32;20207;-62
2021/11/01 02:14:54;;;;;;;363.00;346.70;;;8.80;99.90;;;;;;4383864;32;20193;-62
2021/11/01 02:17:24;;;;;;;350.27;335.03;;;8.80;99.90;;;;;;4391645;32;20167;-63
2021/11/01 02:19:53;;;;;;;354.87;338.53;;;8.80;99.90;;;;;;4390847;32;20160;-62
2021/11/01 02:22:31;;;;;;;369.33;353.57;;;8.80;99.90;;;;;;4383254;32;20183;-63
2021/11/01 02:25:04;;;;;;;343.07;327.43;;;8.80;99.90;;;;;;4392799;32;20567;-63
2021/11/01 02:27:35;;;;;;;345.93;330.50;;;8.80;99.90;;;;;;4392383;32;20188;-62
2021/11/01 02:30:03;;;;;;;342.00;326.87;;;8.70;99.90;;;;;;4391044;32;20173;-62
2021/11/01 02:32:31;;;;;;;343.00;328.27;;;8.70;99.90;;;;;;4390407;32;20178;-62
2021/11/01 02:34:58;;;;;;;361.07;345.37;;;8.70;99.90;;;;;;4392101;32;20155;-62
2021/11/01 02:37:25;;;;;;;338.77;323.77;;;8.70;99.90;;;;;;4390905;32;20172;-62
2021/11/01 02:39:53;;;;;;;338.37;323.77;;;8.70;99.90;;;;;;4391544;32;20179;-62
2021/11/01 02:42:22;;;;;;;345.60;330.27;;;8.70;99.90;;;;;;4390600;32;20186;-63
2021/11/01 02:44:56;;;;;;;334.43;319.73;;;8.80;99.90;;;;;;4392396;32;20173;-63
2021/11/01 02:47:23;;;;;;;365.27;348.80;;;8.70;99.90;;;;;;4392508;32;20176;-62
2021/11/01 02:49:50;;;;;;;342.60;327.23;;;8.70;99.90;;;;;;4391473;32;20176;-62
2021/11/01 02:52:17;;;;;;;361.80;345.30;;;8.70;99.90;;;;;;4390660;32;20148;-63
2021/11/01 02:54:45;;;;;;;359.27;343.47;;;8.70;99.90;;;;;;4390630;32;20190;-62
2021/11/01 02:57:12;;;;;;;385.07;368.27;;;8.70;99.90;;;;;;4390496;32;20180;-62
2021/11/01 02:59:39;;;;;;;371.10;354.67;;;8.70;99.90;;;;;;4390560;32;20576;-62
2021/11/01 03:02:08;;;;;;;360.67;344.53;;;8.60;99.90;;;;;;4390438;32;20190;-62
2021/11/01 03:04:35;;;;;;;362.77;346.77;;;8.70;99.90;;;;;;4391622;32;20159;-63
2021/11/01 03:07:03;;;;;;;367.23;351.13;;;8.70;99.90;;;;;;4390611;32;20168;-63
2021/11/01 03:09:32;;;;;;;367.27;351.17;;;8.70;99.90;;;;;;4390515;32;20150;-62
2021/11/01 03:12:01;;;;;;;399.70;382.17;;;8.70;99.90;;;;;;4390504;32;20153;-62
2021/11/01 03:14:33;;;;;;;365.10;348.67;;;8.70;99.90;;;;;;4390215;32;20160;-62
2021/11/01 03:17:03;;;;;;;344.13;329.23;;;8.70;99.90;;;;;;4391306;32;20165;-63
2021/11/01 03:19:32;;;;;;;363.93;347.73;;;8.70;99.90;;;;;;4390224;32;20484;-62
2021/11/01 03:22:03;;;;;;;369.40;353.03;;;8.70;99.90;;;;;;4389598;32;20263;-64
2021/11/01 03:24:32;;;;;;;355.87;340.30;;;8.70;99.90;;;;;;4386721;32;20175;-62
2021/11/01 03:26:59;;;;;;;358.00;342.43;;;8.60;99.90;;;;;;4384655;32;20246;-63
2021/11/01 03:29:28;;;;;;;376.77;359.97;;;8.70;99.90;;;;;;4391264;32;20172;-62
2021/11/01 03:31:57;;;;;;;359.03;343.30;;;8.60;99.90;;;;;;4390654;32;20209;-63
2021/11/01 03:34:25;;;;;;;352.53;336.93;;;8.70;99.90;;;;;;4390322;32;20217;-62
2021/11/01 03:36:54;;;;;;;370.10;352.60;;;8.70;99.90;;;;;;4390735;32;20146;-62
2021/11/01 03:39:23;;;;;;;354.67;339.30;;;8.70;99.90;;;;;;4390581;32;20182;-62
2021/11/01 03:41:53;;;;;;;371.87;355.03;;;8.60;99.90;;;;;;4384117;32;20179;-62
2021/11/01 03:44:26;;;;;;;379.60;363.00;;;8.60;99.90;;;;;;4375289;32;20160;-62
2021/11/01 03:46:57;;;;;;;361.90;345.70;;;8.50;99.90;;;;;;4375025;32;20168;-62
2021/11/01 03:49:25;;;;;;;363.20;347.73;;;8.50;99.90;;;;;;4375177;32;20155;-62
2021/11/01 03:52:06;;;;;;;360.53;344.63;;;8.50;99.90;;;;;;4376700;32;20485;-63
2021/11/01 03:54:34;;;;;;;356.83;341.47;;;8.60;99.90;;;;;;4387093;32;20581;-63
2021/11/01 03:57:02;;;;;;;356.33;340.83;;;8.60;99.90;;;;;;4393336;32;20153;-62
2021/11/01 03:59:30;;;;;;;358.13;342.13;;;8.50;99.90;;;;;;4394782;32;20484;-62
2021/11/01 04:01:57;;;;;;;354.73;339.20;;;8.50;99.90;;;;;;4393896;32;20565;-63
2021/11/01 04:04:24;;;;;;;356.77;340.77;;;8.50;99.90;;;;;;4393096;32;20167;-62
2021/11/01 04:06:51;;;;;;;378.13;361.20;;;8.40;99.90;;;;;;4393476;32;20485;-62
2021/11/01 04:09:19;;;;;;;381.53;363.90;;;8.40;99.90;;;;;;4392986;32;20170;-62
2021/11/01 04:11:50;;;;;;;352.30;336.53;;;8.60;99.90;;;;;;4393117;32;20238;-62
2021/11/01 04:14:19;;;;;;;372.83;356.33;;;8.70;99.90;;;;;;4393735;32;20187;-62
2021/11/01 04:16:48;;;;;;;377.63;360.87;;;8.70;99.90;;;;;;4394512;32;20196;-63
2021/11/01 04:19:35;;;;;;;367.87;351.20;;;8.70;99.90;;;;;;4394631;32;20154;-62
2021/11/01 04:22:03;;;;;;;356.67;341.10;;;8.70;99.90;;;;;;4393804;32;20148;-62
2021/11/01 04:24:32;;;;;;;365.67;349.77;;;8.60;99.90;;;;;;4393333;32;20248;-62
2021/11/01 04:27:00;;;;;;;374.80;357.70;;;8.70;99.90;;;;;;4391944;32;20160;-62
2021/11/01 04:29:30;;;;;;;372.60;356.37;;;8.70;99.90;;;;;;4393579;32;20172;-62
2021/11/01 04:32:07;;;;;;;381.77;365.00;;;8.70;99.90;;;;;;4394484;32;20151;-63
2021/11/01 04:34:36;;;;;;;356.17;340.07;;;8.70;99.90;;;;;;4392398;32;20572;-63
2021/11/01 04:37:04;;;;;;;351.27;335.30;;;8.60;99.90;;;;;;4390092;32;20187;-62
2021/11/01 04:39:40;;;;;;;367.00;350.00;;;8.60;99.90;;;;;;4378294;32;20183;-62
2021/11/01 04:42:33;;;;;;;353.37;337.67;;;8.60;99.90;;;;;;4384704;32;20674;-62
2021/11/01 04:53:19;;;;;;;343.70;328.57;;;8.50;99.90;;;;;;4345495;33;20581;-63
2021/11/01 04:55:47;;;;;;;362.57;346.43;;;8.50;99.90;;;;;;4346687;33;20248;-62
2021/11/01 04:58:14;;;;;;;356.97;340.87;;;8.40;99.90;;;;;;4347186;33;20175;-62
2021/11/01 05:00:41;;;;;;;349.77;333.43;;;8.50;99.90;;;;;;4345700;33;20152;-63
2021/11/01 05:03:13;;;;;;;388.13;370.23;;;8.50;99.90;;;;;;4346004;33;20157;-62
2021/11/01 05:05:40;;;;;;;365.20;347.93;;;8.40;99.90;;;;;;4345313;33;20161;-62
2021/11/01 05:08:07;;;;;;;356.77;340.77;;;8.50;99.90;;;;;;4345263;33;20245;-62
2021/11/01 05:10:37;;;;;;;379.87;363.23;;;8.40;99.90;;;;;;4346878;33;20265;-62
2021/11/01 05:13:11;;;;;;;387.20;369.83;;;8.40;99.90;;;;;;4345529;33;20298;-62
2021/11/01 05:15:41;;;;;;;371.33;354.90;;;8.40;99.90;;;;;;4345221;33;20229;-62
2021/11/01 05:18:19;;;;;;;363.80;347.73;;;8.40;99.90;;;;;;4345284;33;20234;-62
2021/11/01 05:20:50;;;;;;;365.13;348.80;;;8.40;99.90;;;;;;4346697;33;20556;-62
2021/11/01 05:23:28;;;;;;;356.27;340.30;;;8.40;99.90;;;;;;4345066;33;20166;-61
2021/11/01 05:25:57;;;;;;;364.90;349.13;;;8.40;99.90;;;;;;4342297;33;20166;-62
2021/11/01 05:28:29;;;;;;;363.70;347.50;;;8.50;99.90;;;;;;4364096;32;20240;-61
2021/11/01 05:30:59;;;;;;;352.93;336.80;;;8.40;99.90;;;;;;4390873;32;20247;-62
2021/11/01 05:33:52;;;;;;;360.70;344.07;;;8.50;99.90;;;;;;4393145;32;20201;-62
2021/11/01 05:36:21;;;;;;;344.37;328.23;;;8.50;99.90;;;;;;4391878;32;20303;-62
2021/11/01 05:38:49;;;;;;;384.67;367.53;;;8.60;99.90;;;;;;4389582;32;20186;-62
2021/11/01 05:41:16;;;;;;;371.47;354.57;;;8.60;99.90;;;;;;4384967;32;20195;-62
2021/11/01 05:43:45;;;;;;;363.20;346.77;;;8.80;99.90;;;;;;4391959;32;20170;-62
2021/11/01 05:46:12;;;;;;;350.37;334.60;;;8.90;99.90;;;;;;4390986;32;20169;-62
2021/11/01 05:48:47;;;;;;;360.00;343.83;;;8.80;99.90;;;;;;4376323;32;20178;-62
2021/11/01 05:51:15;;;;;;;357.87;342.50;;;8.90;99.90;;;;;;4377865;32;20217;-62
2021/11/01 05:53:44;;;;;;;342.50;327.87;;;8.90;99.90;;;;;;4377087;32;20204;-61
2021/11/01 05:56:24;;;;;;;342.07;326.77;;;8.80;99.90;;;;;;4376704;32;20170;-63
2021/11/01 05:59:03;;;;;;;358.60;343.17;;;8.80;99.90;;;;;;4376201;32;20204;-61
2021/11/01 06:04:20;;;;;;;345.70;330.27;;;8.80;99.90;;;;;;4329788;33;20193;-62
2021/11/01 06:07:04;;;;;;;353.43;338.23;;;8.80;99.90;;;;;;4331512;33;20169;-61
2021/11/01 06:09:46;;;;;;;358.73;343.13;;;8.70;99.90;;;;;;4344427;33;20212;-61
2021/11/01 06:14:59;;;;;;;353.03;337.70;;;8.70;99.90;;;;;;4341744;33;20246;-62
2021/11/01 06:17:31;;;;;;;331.90;316.83;;;8.80;99.90;;;;;;4341528;33;20175;-62
2021/11/01 06:19:58;;;;;;;351.37;335.30;;;8.80;99.90;;;;;;4334352;33;20156;-61
2021/11/01 06:22:25;;;;;;;345.23;329.33;;;8.90;99.90;;;;;;4334697;33;20324;-62
2021/11/01 06:24:53;;;;;;;345.80;330.50;;;8.90;99.90;;;;;;4335402;33;20183;-62
2021/11/01 06:27:22;;;;;;;357.37;340.83;;;8.90;99.90;;;;;;4334505;33;20170;-62
2021/11/01 06:29:57;;;;;;;354.00;337.70;;;8.80;99.90;;;;;;4332099;33;20242;-62
2021/11/01 06:32:33;;;;;;;347.40;332.43;;;8.80;99.90;;;;;;4333022;33;20590;-62
2021/11/01 06:40:55;;;;;;;359.23;342.73;;;8.60;99.90;;;;;;4296059;33;20203;-61
2021/11/01 06:43:25;;;;;;;353.37;337.23;;;8.60;99.90;;;;;;4328459;33;20174;-61
2021/11/01 06:49:42;;;;;;;362.23;346.00;;;8.50;99.90;;;;;;4327715;33;20237;-62
2021/11/01 06:51:54;;;;;;;346.13;330.57;;;8.60;99.90;;;;;;4328565;33;20293;-62
2021/11/01 06:54:35;;;;;;;343.17;327.80;;;8.60;99.90;;;;;;4325976;33;20316;-63
2021/11/01 06:57:22;;;;;;;349.60;334.50;;;8.70;99.90;;;;;;4324729;33;20161;-62
2021/11/01 07:16:32;;;;;;;319.60;305.17;;;8.70;99.90;;;;;;4382603;32;20280;-62
2021/11/01 07:19:02;;;;;;;347.17;331.83;;;8.70;99.90;;;;;;4381559;32;20176;-63
2021/11/01 07:21:55;;;;;;;375.17;358.07;;;8.80;99.90;;;;;;4386653;32;20218;-61
2021/11/01 07:38:37;;;;;;;319.27;305.50;;;9.50;99.90;;;;;;4343793;33;20184;-61
2021/11/01 08:44:44;;;;;;;141.07;134.37;;;10.20;99.90;;;;;;4288942;33;20159;-61
2021/11/01 08:47:28;;;;;;;147.93;140.97;;;10.10;99.90;;;;;;4287412;33;20215;-63
2021/11/01 09:01:31;;;;;;;115.70;109.97;;;10.70;99.90;;;;;;4316496;33;20168;-63
2021/11/01 09:04:11;;;;;;;122.33;116.93;;;10.80;99.90;;;;;;4329267;33;20172;-62
2021/11/01 09:06:56;;;;;;;128.97;123.13;;;11.00;99.90;;;;;;4360977;32;20160;-63
2021/11/01 09:20:21;;;;;;;105.07;100.40;;;10.90;99.90;;;;;;4361359;32;20164;-62
2021/11/01 09:23:07;;;;;;;96.97;92.03;;;11.10;99.90;;;;;;4378158;32;20180;-62
2021/11/01 09:25:47;;;;;;;94.53;89.87;;;11.10;99.90;;;;;;4378463;32;20148;-63
2021/11/01 09:28:17;;;;;;;102.00;96.87;;;11.00;99.90;;;;;;4376843;32;20148;-64
2021/11/01 09:36:27;;;;;;;89.10;85.00;;;11.00;99.90;;;;;;4378434;32;20194;-62
2021/11/01 09:41:48;;;;;;;88.40;84.00;;;10.90;99.90;;;;;;4331039;33;20159;-63
2021/11/01 09:44:20;;;;;;;91.30;87.40;;;10.90;99.90;;;;;;4330431;33;20161;-62
2021/11/01 09:46:47;;;;;;;90.00;85.80;;;11.00;99.90;;;;;;4331698;33;20177;-62
2021/11/01 09:49:18;;;;;;;98.47;93.40;;;11.00;99.90;;;;;;4330154;33;20181;-63
2021/11/01 09:51:48;;;;;;;99.77;94.77;;;11.10;99.90;;;;;;4330344;33;20597;-62
2021/11/01 09:54:23;;;;;;;99.07;94.77;;;11.30;99.90;;;;;;4331786;33;20179;-61
2021/11/01 09:56:58;;;;;;;93.90;89.53;;;11.30;99.90;;;;;;4331629;33;20149;-60
2021/11/01 09:59:26;;;;;;;95.60;91.17;;;11.20;99.90;;;;;;4330339;33;20207;-62
2021/11/01 10:01:54;;;;;;;90.20;85.80;;;11.20;99.90;;;;;;4329427;33;20166;-64
2021/11/01 10:04:24;;;;;;;81.57;77.53;;;11.40;99.90;;;;;;4331475;33;20153;-62
2021/11/01 10:07:11;;;;;;;89.60;85.37;;;11.30;99.90;;;;;;4330621;33;20161;-61
2021/11/01 10:09:41;;;;;;;85.67;81.20;;;11.30;99.90;;;;;;4329818;33;20149;-61
2021/11/01 10:12:11;;;;;;;78.93;75.57;;;11.30;99.90;;;;;;4329706;33;20235;-60
2021/11/01 10:14:46;;;;;;;97.07;92.67;;;11.20;99.90;;;;;;4331350;33;20266;-64
2021/11/01 10:20:00;;;;;;;83.60;79.40;;;11.30;99.90;;;;;;4388951;32;20185;-63
2021/11/01 10:22:34;;;;;;;86.63;82.50;;;11.30;99.90;;;;;;4391246;32;20150;-60
2021/11/01 10:25:01;;;;;;;92.73;88.57;;;11.30;99.90;;;;;;4391237;32;20203;-61
2021/11/01 10:27:30;;;;;;;89.93;85.93;;;11.30;99.90;;;;;;4391871;32;20641;-61
2021/11/01 10:29:58;;;;;;;91.07;86.63;;;11.40;99.90;;;;;;4392927;32;20144;-62
2021/11/01 10:32:31;;;;;;;90.80;86.47;;;11.40;99.90;;;;;;4392757;32;20151;-61
2021/11/01 10:35:19;;;;;;;100.40;96.20;;;11.40;99.90;;;;;;4391271;32;20139;-62
2021/11/01 10:38:19;;;;;;;81.30;77.60;;;11.50;99.90;;;;;;4391963;32;20140;-63
2021/11/01 10:40:54;;;;;;;82.13;78.37;;;11.50;99.90;;;;;;4360623;32;20184;-62
2021/11/01 10:47:11;;;;;;;83.10;79.00;;;11.60;99.90;;;;;;4358554;33;20194;-61
2021/11/01 11:11:41;;;;;;;79.60;75.87;;;12.10;99.90;;;;;;4360158;32;20231;-62
2021/11/01 11:14:27;;;;;;;87.07;83.10;;;12.20;99.90;;;;;;4358604;32;20192;-63
2021/11/01 11:47:40;;;;;;;91.63;87.50;;;12.10;99.90;;;;;;4358500;33;20195;-60
2021/11/01 11:50:16;;;;;;;100.73;96.33;;;12.00;99.90;;;;;;4357787;33;20156;-62
2021/11/01 11:52:43;;;;;;;101.00;96.47;;;11.90;99.90;;;;;;4357224;33;20535;-63
2021/11/01 11:55:18;;;;;;;110.63;106.00;;;11.80;99.90;;;;;;4359326;33;20709;-63
2021/11/01 11:57:55;;;;;;;109.47;104.60;;;11.80;99.90;;;;;;4356979;33;20564;-62
2021/11/01 12:00:22;;;;;;;109.90;104.60;;;11.80;99.90;;;;;;4375687;32;20209;-62
2021/11/01 12:02:50;;;;;;;98.70;94.10;;;11.90;99.90;;;;;;4381994;32;20175;-63
2021/11/01 12:05:24;;;;;;;120.23;115.10;;;11.90;99.90;;;;;;4384366;32;20204;-62
2021/11/01 12:08:02;;;;;;;94.87;90.47;;;12.00;99.90;;;;;;4385122;32;20183;-62
2021/11/01 12:18:57;;;;;;;103.30;98.53;;;12.00;99.90;;;;;;4300515;33;20232;-60
2021/11/01 12:21:26;;;;;;;103.20;98.70;;;12.00;99.90;;;;;;4300600;33;20342;-62
2021/11/01 12:23:53;;;;;;;106.63;102.27;;;12.00;99.90;;;;;;4301411;33;20158;-61
2021/11/01 12:26:21;;;;;;;107.50;102.90;;;12.10;99.90;;;;;;4301182;33;20158;-63
2021/11/01 12:28:53;;;;;;;106.77;102.13;;;12.20;99.90;;;;;;4305296;33;20291;-63
2021/11/01 12:31:21;;;;;;;105.10;100.40;;;12.20;99.90;;;;;;4316258;33;20173;-63
2021/11/01 12:33:54;;;;;;;108.83;104.17;;;12.20;99.90;;;;;;4308801;33;20336;-60
2021/11/01 12:36:27;;;;;;;92.03;87.93;;;12.20;99.90;;;;;;4287396;33;20266;-61
2021/11/01 12:39:03;;;;;;;92.60;88.53;;;12.30;99.90;;;;;;4289021;33;20184;-64
2021/11/01 12:41:39;;;;;;;105.30;100.63;;;12.20;99.90;;;;;;4287310;33;20189;-63
2021/11/01 12:58:18;;;;;;;96.33;92.10;;;12.30;99.90;;;;;;4285699;33;20177;-62
2021/11/01 13:00:47;;;;;;;90.93;86.63;;;12.30;99.90;;;;;;4287645;33;20551;-63
2021/11/01 13:03:15;;;;;;;98.67;94.17;;;12.20;99.90;;;;;;4286763;33;20190;-61
2021/11/01 13:05:45;;;;;;;102.90;98.13;;;12.20;99.90;;;;;;4287577;33;20494;-63
2021/11/01 13:08:14;;;;;;;99.07;94.70;;;12.20;99.90;;;;;;4277095;33;20167;-63
2021/11/01 13:10:43;;;;;;;94.70;90.43;;;12.20;99.90;;;;;;4272259;33;20182;-63
2021/11/01 13:13:44;;;;;;;112.93;107.60;;;12.20;99.90;;;;;;4277107;33;20200;-63
2021/11/01 13:19:07;;;;;;;103.37;98.63;;;12.30;99.90;;;;;;4275223;33;20212;-63
2021/11/01 13:21:39;;;;;;;104.07;98.97;;;12.30;99.90;;;;;;4277630;33;20210;-62
2021/11/01 13:24:09;;;;;;;109.57;104.50;;;12.30;99.90;;;;;;4325716;33;20165;-61
2021/11/01 13:26:57;;;;;;;92.70;88.10;;;12.40;99.90;;;;;;4351516;32;20505;-60
2021/11/01 13:35:26;;;;;;;93.40;89.40;;;12.30;99.90;;;;;;4329011;33;20156;-60
2021/11/01 13:37:58;;;;;;;90.47;86.20;;;12.30;99.90;;;;;;4328240;33;20173;-61
2021/11/01 13:40:25;;;;;;;97.40;93.07;;;12.40;99.90;;;;;;4327620;33;20181;-63
2021/11/01 13:42:56;;;;;;;96.80;92.77;;;12.50;99.90;;;;;;4328364;33;20253;-61
2021/11/01 13:45:23;;;;;;;101.57;96.93;;;12.60;99.90;;;;;;4328401;33;20185;-63
2021/11/01 13:47:52;;;;;;;103.87;99.20;;;12.80;99.90;;;;;;4329495;33;20259;-63
2021/11/01 13:50:25;;;;;;;87.13;83.20;;;12.90;99.90;;;;;;4329397;33;20224;-62
2021/11/01 13:53:03;;;;;;;98.07;93.63;;;12.70;99.90;;;;;;4326280;33;20178;-62
2021/11/01 13:55:40;;;;;;;98.37;93.80;;;12.60;99.90;;;;;;4327729;33;20169;-62
2021/11/01 13:58:14;;;;;;;92.63;88.67;;;12.50;99.90;;;;;;4327637;33;20169;-61
2021/11/01 14:00:48;;;;;;;104.13;99.40;;;12.40;99.90;;;;;;4324888;33;20241;-60
2021/11/01 14:03:45;;;;;;;109.77;104.80;;;12.40;99.90;;;;;;4332337;33;20171;-60
2021/11/01 14:11:50;;;;;;;93.23;89.00;;;12.40;99.90;;;;;;4347230;32;20153;-60
2021/11/01 14:17:07;;;;;;;97.40;92.67;;;12.20;99.90;;;;;;4360646;32;20199;-60
2021/11/01 14:28:14;;;;;;;120.37;114.80;;;12.40;99.90;;;;;;4361726;32;20160;-60
2021/11/01 14:34:07;;;;;;;97.60;93.07;;;12.50;99.90;;;;;;4353461;32;20173;-60
2021/11/01 15:15:23;;;;;;;120.50;114.90;;;11.90;99.90;;;;;;4336655;33;20153;-62
2021/11/01 15:18:21;;;;;;;129.70;123.90;;;11.80;99.90;;;;;;4340601;33;20157;-66
2021/11/01 15:20:56;;;;;;;107.63;102.63;;;11.80;99.90;;;;;;4333160;33;20169;-63
2021/11/01 15:37:52;;;;;;;154.63;148.40;;;10.60;99.90;;;;;;4314215;33;20169;-60
2021/11/01 15:40:34;;;;;;;153.80;147.50;;;10.30;99.90;;;;;;4315252;33;20340;-60
2021/11/01 16:18:50;;;;;;;262.03;251.60;;;9.30;99.90;;;;;;4344057;33;20226;-60
2021/11/01 16:21:18;;;;;;;294.80;282.93;;;9.20;99.90;;;;;;4346010;32;20593;-61
2021/11/01 16:23:45;;;;;;;313.87;300.80;;;9.10;99.90;;;;;;4385957;32;20157;-61
2021/11/01 16:26:20;;;;;;;323.33;310.20;;;9.00;99.90;;;;;;4385998;32;20156;-60
2021/11/01 16:28:49;;;;;;;335.20;321.47;;;9.00;99.90;;;;;;4384655;32;20216;-60
2021/11/01 16:31:31;;;;;;;332.40;318.77;;;9.10;99.90;;;;;;4383906;32;20187;-64
2021/11/01 16:34:05;;;;;;;309.27;296.50;;;9.10;99.90;;;;;;4387149;32;20222;-61
2021/11/01 16:36:49;;;;;;;330.57;317.20;;;9.10;99.90;;;;;;4380830;32;20186;-60
2021/11/01 16:39:17;;;;;;;322.40;309.47;;;9.10;99.90;;;;;;4382283;32;20163;-62
2021/11/01 16:41:46;;;;;;;339.17;325.40;;;9.10;99.90;;;;;;4382120;32;20172;-60
2021/11/01 16:44:18;;;;;;;328.03;314.60;;;9.10;99.90;;;;;;4381242;32;20160;-60
2021/11/01 16:46:49;;;;;;;330.47;316.87;;;9.10;99.90;;;;;;4378403;32;20164;-62
2021/11/01 16:49:16;;;;;;;339.70;325.57;;;9.10;99.90;;;;;;4379667;32;20223;-61
2021/11/01 16:51:55;;;;;;;372.77;357.17;;;9.10;99.90;;;;;;4388300;32;20165;-60
2021/11/01 16:54:26;;;;;;;334.23;320.00;;;9.10;99.90;;;;;;4389995;32;20211;-61
2021/11/01 16:57:03;;;;;;;357.43;342.47;;;9.10;99.90;;;;;;4385379;32;20196;-60
2021/11/01 16:59:41;;;;;;;356.87;342.23;;;9.10;99.90;;;;;;4382256;32;20224;-60
2021/11/01 17:03:07;;;;;;;357.57;342.93;;;9.10;99.90;;;;;;4381618;32;20206;-62
2021/11/01 17:05:45;;;;;;;318.20;305.23;;;9.20;99.90;;;;;;4385551;32;20194;-61
2021/11/01 17:08:42;;;;;;;325.70;312.50;;;9.10;99.90;;;;;;4381975;32;20636;-62
2021/11/01 17:22:28;;;;;;;349.67;335.30;;;8.90;99.90;;;;;;4395638;32;20270;-61
2021/11/01 17:24:59;;;;;;;348.50;333.90;;;8.90;99.90;;;;;;4383569;32;20579;-60
2021/11/01 17:31:01;;;;;;;336.93;323.10;;;8.80;99.90;;;;;;4373057;32;20228;-61
2021/11/01 18:41:05;;;;;;;338.20;324.10;;;7.80;99.90;;;;;;4263961;33;20157;-61
2021/11/01 18:43:58;;;;;;;349.97;335.37;;;7.80;99.90;;;;;;4271753;33;20163;-61
2021/11/01 18:52:05;;;;;;;362.57;347.70;;;7.70;99.90;;;;;;4325834;32;20192;-61
2021/11/01 18:54:36;;;;;;;389.53;373.37;;;7.70;99.90;;;;;;4366528;32;20156;-61
2021/11/01 18:57:05;;;;;;;373.30;357.67;;;7.70;99.90;;;;;;4364351;32;20254;-61
2021/11/01 18:59:36;;;;;;;353.67;338.70;;;7.70;99.90;;;;;;4365983;32;20160;-61
2021/11/01 19:02:25;;;;;;;353.77;339.07;;;7.70;99.90;;;;;;4367258;32;20468;-61
2021/11/01 19:04:59;;;;;;;353.13;338.20;;;7.60;99.90;;;;;;4349437;33;20228;-61
2021/11/01 19:07:34;;;;;;;372.03;356.40;;;7.60;99.90;;;;;;4349061;32;20299;-61
2021/11/01 19:10:11;;;;;;;352.10;337.37;;;7.60;99.90;;;;;;4351316;33;20211;-61
2021/11/01 20:03:15;;;;;;;318.13;305.03;;;7.40;99.90;;;;;;4295356;33;20544;-61
2021/11/01 20:05:48;;;;;;;326.73;313.13;;;7.30;99.90;;;;;;4366815;32;20163;-61
2021/11/01 20:08:30;;;;;;;348.60;334.03;;;7.40;99.90;;;;;;4369082;32;20224;-61
2021/11/01 20:13:51;;;;;;;329.83;315.90;;;7.30;99.90;;;;;;4368767;32;20637;-61
2021/11/01 20:16:59;;;;;;;328.53;314.67;;;7.30;99.90;;;;;;4365548;32;20152;-61
2021/11/01 21:26:49;;;;;;;316.50;302.93;;;7.00;99.90;;;;;;4292031;33;20251;-61
2021/11/01 21:29:20;;;;;;;333.27;319.33;;;7.00;99.90;;;;;;4297378;33;20197;-63
2021/11/01 21:31:48;;;;;;;338.83;324.23;;;7.00;99.90;;;;;;4295677;33;20177;-63
2021/11/01 21:34:27;;;;;;;340.43;326.07;;;7.00;99.90;;;;;;4339131;33;20153;-61
2021/11/01 21:36:54;;;;;;;315.23;301.73;;;7.00;99.90;;;;;;4341877;33;20198;-61
2021/11/01 21:39:21;;;;;;;325.03;311.50;;;6.90;99.90;;;;;;4341331;33;20149;-61
2021/11/01 21:41:48;;;;;;;337.93;323.50;;;6.90;99.90;;;;;;4342828;33;20177;-61
2021/11/01 21:44:15;;;;;;;326.73;312.97;;;7.00;99.90;;;;;;4375018;32;20160;-61
2021/11/01 21:46:44;;;;;;;337.03;322.20;;;6.90;99.90;;;;;;4390053;32;20235;-62
2021/11/01 21:49:12;;;;;;;309.87;296.87;;;6.80;99.90;;;;;;4390177;32;20166;-62
2021/11/01 21:51:40;;;;;;;331.30;317.03;;;6.90;99.90;;;;;;4382987;32;20155;-61
2021/11/01 21:54:17;;;;;;;344.23;329.60;;;6.90;99.90;;;;;;4382334;32;20206;-60
2021/11/01 21:56:49;;;;;;;316.10;302.67;;;6.90;99.90;;;;;;4384343;32;20175;-61
2021/11/01 22:10:43;;;;;;;313.67;300.43;;;6.80;99.90;;;;;;4383630;32;20221;-63